< < Back
Terminal Aerodrome Forecast


Current Version              Previous Versions:   1  2  3  4  5  6  7  8  9  

Terminal Aerodrome Forecast

514
FTUS42 KCHS 281739
TAFCHS
TAF
KCHS 281739Z 2818/2918 01012G18KT P6SM SKC
     FM282100 36009KT P6SM SKC
     FM290000 VRB04KT P6SM SCT250=



Latest METAR

810
SAUS80 KWBC 282200
MTRCHS
METAR KCHS 282156Z 33006KT 10SM CLR 08/M06 A3027 RMK AO2 SLP252
T00831061


USA.gov is the U.S. government's official web portal to all federal, state and local government web resources and services.